Tiempo atmosférico en la estación meteorológica de Puerto Alto del León, Madrid (1532 m.)



Fecha
DESCASC
Temp. máxima en grados centígrados (hora)
DESCASC
Temp. mínima en grados centígrados (hora)
DESCASC
Temp. media en grados centígrados
DESCASC
Racha de viento máxima en m/sg (hora)
DESCASC
Velocidad máxima media en intervalos de 10 minutos(hora)
DESCASC
Precipitaciones diarias en mm
DESCASC
Precipitaciones de 00:00 a 06:00 en mm
DESCASC
Precipitaciones de 06:00 a 12:00 en mm
DESCASC
Precipitaciones de 12:00 a 18:00 en mm
DESCASC
Precipitaciones de 18:00 a 24:00 en mm
DESCASC
08-12-2019 -- (--) -- (--) -- -- (--) -- (--) -- 0 0 1.9 --
07-12-2019 8.6 (13:30) 1.2 (04:40) 4.9 7.78 (16:20) 5.28 (16:10) 0 0 0 0 0
06-12-2019 7.1 (14:40) 0.6 (08:20) 3.8 11.39 (00:20) 6.67 (02:10) 0 0 0 0 0
05-12-2019 3.5 (13:20) -0.5 (-00:0) 1.5 9.72 (23:40) 5.83 (23:30) 0.3 0.3 0 0 0
04-12-2019 3.2 (14:30) -0.6 (-00:0) 1.3 8.33 (04:40) 5.28 (15:40) 0.2 0 0 0.1 0.1
03-12-2019 4 (15:10) -3.4 (-00:0) 0.3 6.39 (23:59) 4.44 (21:00) 0 0 0 0 0
02-12-2019 -- (--) -- (--) -- -- (--) -- (--) -- -- -- -- 0
01-12-2019 -- (--) -- (--) -- -- (--) -- (--) -- -- -- -- --
30-11-2019 -- (--) -- (--) -- -- (--) -- (--) -- -- -- -- --
29-11-2019 -- (--) -- (--) -- -- (--) -- (--) -- 0.6 5.4 -- --
28-11-2019 7.9 (23:30) 3.4 (00:00) 5.7 16.94 (05:10) 11.39 (05:10) 0 0 0 0 0
27-11-2019 7.4 (14:40) 1.5 (00:00) 4.5 22.22 (01:30) 12.22 (07:10) 0.4 0.4 0 0 0
26-11-2019 8.9 (07:40) 4.3 (00:00) 6.6 12.78 (17:30) 8.33 (00:10) 1.4 0 0 0 1.4
25-11-2019 8.2 (13:10) 4.4 (00:00) 6.3 20.28 (05:50) 13.89 (05:50) 1.6 1.6 0 0 0
24-11-2019 5.7 (23:59) -1.2 (-00:0) 2.2 24.17 (07:20) 15 (00:10) 0.3 0 0 0 0.3
23-11-2019 1.8 (14:30) -1.7 (-00:0) 0 34.17 (07:40) 24.44 (07:40) 0.3 0.3 0 0 0
22-11-2019 5.4 (16:50) 0.2 (00:00) 2.8 21.67 (23:59) 12.5 (23:59) 11.6 1.9 5.3 4.1 0.3
21-11-2019 2.8 (15:30) -2.2 (-00:0) 0.3 8.89 (05:50) 4.17 (06:00) 4.1 0 1.9 2.2 0
20-11-2019 0.2 (00:10) -1.7 (-00:0) -0.8 13.89 (15:40) 5.56 (12:20) 2.8 0 0 2.8 0
19-11-2019 2.3 (14:00) -1.8 (-00:0) 0.3 8.89 (00:10) 7.22 (00:10) 0 0 0 0 0
18-11-2019 -0.4 (14:30) -1.9 (-00:0) -1.1 25.83 (01:00) 16.11 (00:40) 0.1 0.1 0 0 0
17-11-2019 3.8 (14:40) -2.8 (-00:0) 0.5 21.67 (23:30) 14.72 (23:40) 8 0 2.5 4.5 1
16-11-2019 -1.1 (13:50) -4.3 (-00:0) -2.7 7.5 (00:50) 5.28 (00:30) 0 0 0 0 0
15-11-2019 -1.7 (15:00) -3.6 (-00:0) -2.6 20.56 (02:00) 14.44 (02:50) 0.4 0.2 0.2 0 0
14-11-2019 3.5 (00:00) -2.6 (-00:0) 0.5 29.17 (20:10) 17.78 (19:40) 2.2 0.3 1.7 0.2 0
13-11-2019 6.5 (05:00) 3.2 (00:00) 4.9 27.22 (04:20) 18.33 (07:10) 11.9 8.3 3.6 0 0
12-11-2019 5.4 (23:59) -1.1 (-00:0) 2.2 21.39 (23:10) 13.33 (23:10) 10.1 0 0 0 10.1
11-11-2019 4.9 (14:40) -0.8 (04:10) 2.1 19.44 (13:00) 12.22 (13:20) 1.1 0 0.6 0.5 0

Gráficas

Temp. máximas Temp. mínimas Temp. medias Precipitaciones Rachas de viento máximas Velocidades máximas media en intervalos de 10 minutos

Datos horarios

Fecha y hora oficial Temperatura (ºC) Velocidad del viento (km/h) Dirección del viento Racha (km/h) Dirección de racha Precipitación (mm) Presión (hPa) Tendencia (hPa) Humedad (%)
2019-12-10 23:00:00 3.3 33 Noroeste 48 Oeste 0 853.3 -0.8 30
2019-12-10 22:00:00 3.5 33 Noroeste 44 Oeste 0 853.5 -0.8 30
2019-12-10 21:00:00 3.6 27 Noroeste 37 Noroeste 0 853.8 -0.5 31
2019-12-10 20:00:00 4 25 Noroeste 33 Noroeste 0 854.1 -0.1 33
2019-12-10 19:00:00 4 17 Noroeste 23 Noroeste 0 854.3 -0.5 33
2019-12-10 18:00:00 4.6 20 Noroeste 31 Oeste 0 854.3 -0.8 35
2019-12-10 17:00:00 5.4 24 Noroeste 31 Oeste 0 854.2 -1.4 33
2019-12-10 16:00:00 7.1 17 Noroeste 31 Oeste 0 854.8 -1.6 27
2019-12-10 15:00:00 8.2 19 Noroeste 30 Oeste 0 855.1 -2.1 21
2019-12-10 14:00:00 8.6 17 Oeste 24 Oeste 0 855.6 -1.7 19
2019-12-10 13:00:00 7.5 14 Oeste 24 Noroeste 0 856.4 -0.7 22
2019-12-10 12:00:00 6 19 Oeste 26 Oeste 0 857.2 0.2 23
2019-12-10 11:00:00 5.4 11 Oeste 17 Oeste 0 857.3 0.4 24
2019-12-10 10:00:00 2.9 13 Oeste 18 Oeste 0 857.1 0.2 27
2019-12-10 09:00:00 2.4 11 Oeste 14 Oeste 0 857 -0.1 26
2019-12-10 08:00:00 2.3 8 Oeste 16 Oeste 0 856.9 0.1 35
2019-12-10 07:00:00 -0.1 14 Oeste 22 Noroeste 0 856.9 -0.6 52
2019-12-10 06:00:00 0.5 18 Oeste 24 Oeste 0 857.1 -0.4 50
2019-12-10 05:00:00 0.9 10 Oeste 23 Oeste 0 856.8 -0.8 48
2019-12-10 04:00:00 -0.4 20 Oeste 31 Noroeste 0 857.5 -0.4 72
2019-12-10 03:00:00 -0.4 23 Oeste 30 Oeste 0 857.5 -0.4 60
2019-12-10 02:00:00 0 23 Noroeste 35 Oeste 0 857.6 0 50
2019-12-10 01:00:00 0 23 Noroeste 36 Oeste 0 857.9 0.1 50
2019-12-10 00:00:00 0.3 26 Noroeste 40 Oeste 0 857.9 0 47
2019-12-09 23:00:00 1.7 32 Noroeste 43 Noroeste 0 857.6 0.4 42
2019-12-09 22:00:00 1.3 30 Noroeste 40 Oeste 0 857.8 1.1 48
2019-12-09 21:00:00 1.7 27 Noroeste 44 Oeste 0 857.9 2 44
2019-12-09 20:00:00 2.1 30 Oeste 46 Oeste 0 857.2 1.4 37
2019-12-09 19:00:00 2.2 28 Noroeste 51 Noroeste 0 856.7 0.8 33
2019-12-09 18:00:00 3.8 37 Noroeste 54 Noroeste 0 855.9 0.5 26
2019-12-09 17:00:00 4.3 38 Noroeste 57 Noroeste 0 855.8 0.1 29
2019-12-09 16:00:00 5.1 39 Noroeste 62 Noroeste 0 855.9 -0.3 30
2019-12-09 15:00:00 5.2 43 Noroeste 62 Noroeste 0 855.4 -1.4 30
2019-12-09 14:00:00 6.3 39 Noroeste 63 Noroeste 0 855.7 -1.1 30
2019-12-09 13:00:00 5.5 42 Noroeste 57 Noroeste 0 856.2 0 36
2019-12-09 12:00:00 3.9 35 Noroeste 51 Noroeste 0 856.8 1.1 81
2019-12-09 11:00:00 0.4 35 Noroeste 50 Oeste 0 856.8 1.5 81
2019-12-09 10:00:00 0.7 35 Noroeste 51 Oeste 0 856.2 1.2 81
2019-12-09 09:00:00 0.3 33 Noroeste 57 Oeste 0 855.7 0.8 81
2019-12-09 08:00:00 1.4 37 Oeste 55 Oeste 0 855.3 0 82
2019-12-09 07:00:00 1.8 38 Noroeste 51 Noroeste 0 855 -0.6 81
2019-12-09 06:00:00 2 32 Noroeste 54 Oeste 0 854.9 -0.6 81
2019-12-09 05:00:00 2.5 33 Noroeste 47 Oeste 0 855.3 0 81
2019-12-09 04:00:00 2.8 29 Noroeste 51 Oeste 0 855.6 0.1 81
2019-12-09 03:00:00 3.6 37 Noroeste 56 Noroeste 0 855.5 0.3 81
2019-12-09 02:00:00 3.9 41 Noroeste 58 Noroeste 0 855.3 -- 81
2019-12-09 01:00:00 4.4 31 Noroeste 43 Noroeste 0.1 855.5 -- 81
2019-12-09 00:00:00 4.7 25 Noroeste -- -- -- 855.2 1.1 81
2019-12-08 23:00:00 -- -- -- -- -- -- -- -- --
2019-12-08 22:00:00 -- -- -- -- -- -- -- -- --
2019-12-08 21:00:00 6 32 Noroeste 49 Noroeste 1.4 854.1 1.2 81
2019-12-08 20:00:00 5.9 26 Noroeste 44 Oeste 1.1 853.3 0.8 81
2019-12-08 19:00:00 5.7 27 Noroeste 41 Noroeste 0.8 853.3 0.6 81
2019-12-08 18:00:00 5.6 29 Noroeste 45 Noroeste 0.6 852.9 0.5 81
2019-12-08 17:00:00 5.4 31 Noroeste 45 Oeste 0.5 852.5 -0.4 81
2019-12-08 16:00:00 4.9 28 Noroeste 48 Noroeste 0.3 852.7 -0.6 81
2019-12-08 15:00:00 4.7 33 Noroeste 48 Noroeste 0.5 852.4 -1.1 82
2019-12-08 14:00:00 4.7 26 Noroeste 36 Noroeste 0 852.9 -1 82
2019-12-08 13:00:00 4.1 27 Noroeste 40 Noroeste 0 853.3 0.1 82
2019-12-08 12:00:00 3.8 26 Noroeste 37 Noroeste 0 853.5 0.6 70
2019-12-08 11:00:00 3.8 27 Noroeste 42 Noroeste 0 853.9 1.1 57
2019-12-08 10:00:00 3.5 31 Noroeste 44 Oeste 0 853.2 0.6 53
2019-12-08 09:00:00 1.6 31 Noroeste 43 Oeste 0 852.9 0.3 64
2019-12-08 08:00:00 1.5 32 Noroeste 39 Noroeste 0 852.8 0 75
2019-12-08 07:00:00 1.1 24 Noroeste 34 Oeste 0 852.6 -0.7 80
2019-12-08 06:00:00 0.8 26 Noroeste 36 Oeste 0 852.6 -1 77
2019-12-08 05:00:00 1.2 26 Noroeste 32 Oeste 0 852.8 -1 71
2019-12-08 04:00:00 2.7 13 Noroeste 15 Noroeste 0 853.3 -0.8 69
2019-12-08 03:00:00 2.7 10 Noroeste 19 Noroeste 0 853.6 -0.6 69
2019-12-08 02:00:00 2.2 17 Oeste 23 Oeste 0 853.8 -0.2 69
2019-12-08 01:00:00 2.6 18 Oeste 23 Oeste 0 854.1 0 56
2019-12-08 00:00:00 3.3 13 Oeste 19 Oeste 0 854.2 0.4 47
2019-12-07 23:00:00 3.8 15 Oeste 22 Oeste 0 854 0.7 61
2019-12-07 22:00:00 3.1 14 Oeste 21 Oeste 0 854.1 1 74
2019-12-07 21:00:00 3 16 Oeste 24 Oeste 0 853.8 1.1 74
2019-12-07 20:00:00 3.4 18 Oeste 24 Oeste 0 853.3 0.8 73
2019-12-07 19:00:00 3.7 15 Oeste 22 Oeste 0 853.1 0.9 73
2019-12-07 18:00:00 3.9 17 Oeste 23 Oeste 0 852.7 0.6 70
2019-12-07 17:00:00 6.5 17 Noroeste 28 Oeste 0 852.5 0.1 53
2019-12-07 16:00:00 7.7 18 Noroeste 26 Oeste 0 852.2 -0.5 43
2019-12-07 15:00:00 8.1 17 Oeste 23 Noroeste 0 852.1 -1 44
2019-12-07 14:00:00 7.7 13 Noroeste 19 Noroeste 0 852.4 -0.6 43
2019-12-07 13:00:00 7.1 7 Este 10 Este 0 852.7 -0.1 56
2019-12-07 12:00:00 7.2 2 Noroeste 7 Noroeste 0 853.1 0.7 47
2019-12-07 11:00:00 5 5 Noroeste 15 Oeste 0 853 1.1 57
2019-12-07 10:00:00 2.6 11 Oeste 15 Oeste 0 852.8 1 62
2019-12-07 09:00:00 3.2 6 Oeste 16 Sudeste 0 852.4 0.6 55
2019-12-07 08:00:00 2.7 13 Sudeste 20 Sudeste 0 851.9 0 71
2019-12-07 07:00:00 2.4 14 Sudeste 19 Sudeste 0 851.8 -0.2 71
2019-12-07 06:00:00 2.1 0 Calma 10 Oeste 0 851.8 -0.2 74
2019-12-07 05:00:00 2.2 8 Oeste 14 Oeste 0 851.9 -0.1 77
2019-12-07 04:00:00 1.6 11 Oeste 18 Oeste 0 852 -0.3 76
2019-12-07 03:00:00 2 8 Oeste 13 Oeste 0 852 -0.4 72
2019-12-07 02:00:00 2.2 0 Calma 14 Sudeste 0 852 -0.4 74
2019-12-07 01:00:00 1.9 10 Sudeste 13 Sudeste 0 852.3 0.2 76
2019-12-07 00:00:00 2.1 8 Sudeste 10 Sudeste 0 852.4 0.7 75
2019-12-06 23:00:00 2 7 Sudoeste 11 Oeste 0 852.4 0.9 76
2019-12-06 22:00:00 2 12 Sudeste 22 Sudeste 0 852.1 0.7 76
2019-12-06 21:00:00 2.4 13 Sudeste 19 Este 0 851.7 1 75
2019-12-06 20:00:00 2.7 9 Sudeste 16 Sudeste 0 851.5 0.7 74
2019-12-06 19:00:00 3 10 Este 14 Sudeste 0 851.4 0.6 72
2019-12-06 18:00:00 3.7 8 Sudeste 10 Sudeste 0 850.7 -0.1 65
2019-12-06 17:00:00 4.5 8 Sudeste 10 Sudeste 0 850.8 -0.4 60
2019-12-06 16:00:00 5.6 7 Sudeste 13 Sudeste 0 850.8 -0.7 55
2019-12-06 15:00:00 6.5 5 Sudeste 13 Sudeste 0 850.8 -1 52
2019-12-06 14:00:00 5.2 6 Este 19 Sudeste 0 851.2 -0.8 53
2019-12-06 13:00:00 5.4 12 Sudeste 22 Este 0 851.5 -0.2 53
2019-12-06 12:00:00 5.1 13 Este 26 Este 0 851.8 0.4 59
2019-12-06 11:00:00 4.2 15 Este 21 Este 0 852 1.3 61
2019-12-06 10:00:00 3.2 9 Sudeste 17 Sudeste 0 851.7 1 70
2019-12-06 09:00:00 1.3 2 Este 23 Sudeste 0 851.4 1.1 78
2019-12-06 08:00:00 0.9 14 Sudeste 19 Sudeste 0 850.7 0.4 76
2019-12-06 07:00:00 1.5 8 Sudeste 12 Este 0 850.7 0.5 73
2019-12-06 06:00:00 1.3 8 Este 12 Sudeste 0 850.3 0.4 75
2019-12-06 05:00:00 1.8 9 Sudeste 17 Sudeste 0 850.3 0.6 78
2019-12-06 04:00:00 2 12 Sudeste 28 Sudeste 0 850.2 0.2 78
2019-12-06 03:00:00 2 18 Sudeste 40 Este 0 849.9 -0.2 77
2019-12-06 02:00:00 1.9 23 Sudeste 38 Sudeste 0 849.7 -0.4 77
2019-12-06 01:00:00 1.9 19 Este 41 Sudeste 0 850 -0.1 77
2019-12-06 00:00:00 1.9 18 Sudeste 35 Sudeste 0 850.1 0.2 75
2019-12-05 23:00:00 2.2 19 Este 32 Este 0 850.1 0.6 73
2019-12-05 22:00:00 2.6 13 Sudeste 27 Sudeste 0 850.1 1.4 71
2019-12-05 21:00:00 2.1 9 Sudeste 15 Sudeste 0 849.9 1.4 75
2019-12-05 20:00:00 2 0 Calma 12 Este 0 849.5 1.4 81
2019-12-05 19:00:00 2 5 Este 17 Sudeste 0 848.7 0.8 81
2019-12-05 18:00:00 2.2 4 Sudeste 11 Este 0 848.5 1 81
2019-12-05 17:00:00 2.8 7 Este 19 Sudeste 0 848.1 0.5 81
2019-12-05 16:00:00 2.9 3 Este 12 Este 0 847.9 0.2 81
2019-12-05 15:00:00 3.1 5 Este 12 Oeste 0 847.5 -0.3 81
2019-12-05 14:00:00 1.6 8 Oeste 14 Oeste 0 847.6 0 81
2019-12-05 13:00:00 2.1 2 Noroeste 10 Noroeste 0 847.7 1 81
2019-12-05 12:00:00 1.3 4 Noroeste 17 Noroeste 0 847.8 1.8 81
2019-12-05 11:00:00 0 10 Oeste 14 Oeste 0 847.6 2.2 81
2019-12-05 10:00:00 -0.2 9 Oeste 13 Oeste 0 846.7 1.7 81
2019-12-05 09:00:00 -0.4 0 Calma 8 Noroeste 0 846 2 81
2019-12-05 08:00:00 -0.5 4 Oeste 14 Oeste 0 845.4 1.3 81
2019-12-05 07:00:00 -0.3 12 Oeste 18 Oeste 0 845 1.3 81
2019-12-05 06:00:00 0 7 Oeste 11 Oeste 0.3 844 0.3 81
2019-12-05 05:00:00 0.1 5 Noroeste 10 Oeste 0 844.1 0.6 81
2019-12-05 04:00:00 0 8 Oeste 21 Oeste 0 843.7 0.7 81
2019-12-05 03:00:00 0.2 15 Noroeste 24 Oeste 0 843.7 1.1 81
2019-12-05 02:00:00 0.7 16 Noroeste 23 Noroeste 0 843.5 1.4 81
2019-12-05 01:00:00 0.8 19 Oeste 26 Oeste 0 843 0.9 81
2019-12-05 00:00:00 1 15 Oeste 21 Oeste 0 842.6 0.7 81
2019-12-04 23:00:00 1 9 Noroeste 18 Oeste 0 842.1 0.6 81
2019-12-04 22:00:00 1.2 12 Noroeste 20 Oeste 0 842.1 0.9 81
2019-12-04 21:00:00 1.4 11 Noroeste 21 Oeste 0 841.9 1.1 81
2019-12-04 20:00:00 1.4 10 Oeste 22 Oeste 0 841.5 1 81
2019-12-04 19:00:00 1.2 10 Oeste 16 Oeste 0.1 841.2 1.3 81
2019-12-04 18:00:00 0.9 9 Oeste 17 Noroeste 0.1 840.8 1.1 81
2019-12-04 17:00:00 0.8 10 Oeste 23 Oeste 0 840.5 0.6 81
2019-12-04 16:00:00 0.6 15 Oeste 26 Noroeste 0 839.9 -0.4 81
2019-12-04 15:00:00 1.9 15 Oeste 27 Oeste 0 839.7 -0.8 73
2019-12-04 14:00:00 2 13 Noroeste 20 Oeste 0 839.9 -1.1 73
2019-12-04 13:00:00 1.7 10 Oeste 17 Noroeste 0 840.3 -0.5 70
2019-12-04 12:00:00 2 10 Noroeste 17 Noroeste 0 840.5 0 70
2019-12-04 11:00:00 0.6 8 Noroeste 13 Noroeste 0 841 0.7 79
2019-12-04 10:00:00 1.6 4 Este 17 Sudeste 0 840.8 0.5 80
2019-12-04 09:00:00 1.7 9 Este 23 Sudeste 0 840.5 0.4 81
2019-12-04 08:00:00 1.4 14 Sudeste 24 Sudeste 0 840.3 -0.6 80
2019-12-04 07:00:00 0.9 14 Sudeste 22 Sudeste 0 840.3 -1 80
2019-12-04 06:00:00 1.1 13 Sudeste 21 Sudeste 0 840.1 -1.6 76
2019-12-04 05:00:00 1.2 13 Sudeste 30 Este 0 840.9 -1.5 73
2019-12-04 04:00:00 1.1 10 Este 18 Este 0 841.3 -1.3 69
2019-12-04 03:00:00 0.4 10 Sudeste 18 Sudeste 0 841.7 -1.5 71
2019-12-04 02:00:00 -0.4 12 Sudeste 20 Sudeste 0 842.4 -1 72
2019-12-04 01:00:00 0.2 15 Sudeste 22 Sudeste 0 842.6 -0.7 68
2019-12-04 00:00:00 0.4 15 Sudeste 23 Este 0 843.2 0.1 68
2019-12-03 23:00:00 0 13 Sudeste 22 Sudeste 0 843.4 0.4 73
2019-12-03 22:00:00 0 13 Sudeste 23 Sudeste 0 843.3 0.6 76
2019-12-03 21:00:00 -0.5 16 Este 23 Sudeste 0 843.1 0.3 78
2019-12-03 20:00:00 0 10 Sudeste 15 Sudeste 0 843 0.3 74
2019-12-03 19:00:00 0.1 8 Sudeste 13 Este 0 842.7 -0.1 69
2019-12-03 18:00:00 1.2 7 Sudeste 15 Sur 0 842.8 0 60
2019-12-03 17:00:00 2.4 4 Sudeste 12 Sudeste 0 842.7 -0.3 55
2019-12-03 16:00:00 2.9 8 Sudeste 15 Sudeste 0 842.8 -1.1 48
2019-12-03 15:00:00 3.4 6 Sudeste 15 Este 0 842.8 -1.7 45
2019-12-03 14:00:00 3 7 Sudeste 17 Sudeste 0 843 -1.8 46
2019-12-03 13:00:00 2.7 7 Este 13 Este 0 843.9 -0.6 47
2019-12-03 12:00:00 1.7 10 Este 16 Sudeste 0 844.5 -0.1 49
2019-12-03 11:00:00 1.1 10 Este 18 Sudeste 0 844.8 0.2 48
2019-12-03 10:00:00 0.4 12 Sudeste 18 Este 0 844.5 -0.3 52
2019-12-03 09:00:00 -0.7 6 Sudeste 9 Sudeste 0 844.6 -0.2 54
2019-12-03 08:00:00 -1.3 0 Calma -- -- 0 844.6 -0.4 69
2019-12-03 07:00:00 -3.1 0 Calma -- -- 0 844.8 -0.6 79
2019-12-03 06:00:00 -3.2 0 Calma -- -- 0 844.8 -0.8 75
2019-12-03 05:00:00 -1.3 0 Calma -- -- 0 845 -0.9 74
2019-12-03 04:00:00 -2.7 0 Calma -- -- 0 845.4 -1 80
2019-12-03 03:00:00 -2.7 0 Calma -- -- 0 845.6 -1 79
2019-12-03 02:00:00 -1.1 0 Calma 11 Oeste 0 845.9 -1.1 80
2019-12-03 01:00:00 -1.5 11 Noroeste 15 Noroeste 0 846.4 -0.4 81
2019-12-03 00:00:00 -1.1 10 Noroeste 35 Oeste 0 846.6 0 81
2019-12-02 23:00:00 -1.3 13 Oeste 18 Oeste 0 847 0.6 81
2019-12-02 22:00:00 -0.7 8 Oeste 14 Oeste 0 846.8 0.6 80
2019-12-02 21:00:00 -1.2 8 Oeste 14 Sudeste 0 846.6 0.9 75
2019-12-02 20:00:00 0.3 8 Sur 21 Sudeste 0 846.4 1.1 67
2019-12-02 19:00:00 0.6 11 Sudeste 16 Sudeste 0 846.2 1.3 67
2019-12-02 18:00:00 1.3 9 Sudeste 17 Sudeste 0 845.7 0.8 65
2019-12-02 17:00:00 2.6 7 Sudeste 18 Sudeste 0 845.3 0.4 57
2019-12-02 16:00:00 3.3 9 Este 17 Sudeste 0.1 844.9 -- 58
2019-12-02 15:00:00 2.6 2 Nordeste 19 Este 1.5 844.9 -- 67
2019-12-02 14:00:00 2.9 9 Este 22 Este 1.8 844.9 -- 63
2019-12-02 13:00:00 -- 5 Noroeste -- -- -- -- -- --
2019-12-02 12:00:00 -- -- -- -- -- -- -- -- --
2019-12-02 11:00:00 -- -- -- -- -- -- -- -- --
2019-12-02 10:00:00 -- -- -- -- -- -- -- -- --
2019-12-02 09:00:00 -- -- -- -- -- -- -- -- --
2019-12-02 08:00:00 -- -- -- -- -- -- -- -- --
2019-12-02 07:00:00 -- -- -- -- -- -- -- -- --
2019-12-02 06:00:00 -- -- -- -- -- -- -- -- --
2019-12-02 05:00:00 -- -- -- -- -- -- -- -- --
2019-12-02 04:00:00 -- -- -- -- -- -- -- -- --
2019-12-02 03:00:00 -- -- -- -- -- -- -- -- --
2019-12-02 02:00:00 -- -- -- -- -- -- -- -- --
2019-12-02 01:00:00 -- -- -- -- -- -- -- -- --
2019-12-02 00:00:00 -- -- -- -- -- -- -- -- --
2019-12-01 23:00:00 -- -- -- -- -- -- -- -- --
2019-12-01 22:00:00 -- -- -- -- -- -- -- -- --
2019-12-01 21:00:00 -- -- -- -- -- -- -- -- --
2019-12-01 20:00:00 -- -- -- -- -- -- -- -- --
2019-12-01 19:00:00 -- -- -- -- -- -- -- -- --
2019-12-01 18:00:00 -- -- -- -- -- -- -- -- --
2019-12-01 17:00:00 -- -- -- -- -- -- -- -- --
2019-12-01 16:00:00 -- -- -- -- -- -- -- -- --
2019-12-01 15:00:00 -- -- -- -- -- -- -- -- --
2019-12-01 14:00:00 -- -- -- -- -- -- -- -- --
2019-12-01 13:00:00 -- -- -- -- -- -- -- -- --
2019-12-01 12:00:00 -- -- -- -- -- -- -- -- --
2019-12-01 11:00:00 -- -- -- -- -- -- -- -- --
2019-12-01 10:00:00 -- -- -- -- -- -- -- -- --
2019-12-01 09:00:00 -- -- -- -- -- -- -- -- --
2019-12-01 08:00:00 -- -- -- -- -- -- -- -- --
2019-12-01 07:00:00 -- -- -- -- -- -- -- -- --
2019-12-01 06:00:00 -- -- -- -- -- -- -- -- --
2019-12-01 05:00:00 -- -- -- -- -- -- -- -- --
2019-12-01 04:00:00 -- -- -- -- -- -- -- -- --
2019-12-01 03:00:00 -- -- -- -- -- -- -- -- --
2019-12-01 02:00:00 -- -- -- -- -- -- -- -- --
2019-12-01 01:00:00 -- -- -- -- -- -- -- -- --
2019-12-01 00:00:00 -- -- -- -- -- -- -- -- --
2019-11-30 23:00:00 -- -- -- -- -- -- -- -- --
2019-11-30 22:00:00 -- -- -- -- -- -- -- -- --
2019-11-30 21:00:00 -- -- -- -- -- -- -- -- --
2019-11-30 20:00:00 -- -- -- -- -- -- -- -- --
2019-11-30 19:00:00 -- -- -- -- -- -- -- -- --
2019-11-30 18:00:00 -- -- -- -- -- -- -- -- --
2019-11-30 17:00:00 -- -- -- -- -- -- -- -- --
2019-11-30 16:00:00 -- -- -- -- -- -- -- -- --
2019-11-30 15:00:00 -- -- -- -- -- -- -- -- --
2019-11-30 14:00:00 -- -- -- -- -- -- -- -- --
2019-11-30 13:00:00 -- -- -- -- -- -- -- -- --
2019-11-30 12:00:00 -- -- -- -- -- -- -- -- --
2019-11-30 11:00:00 -- -- -- -- -- -- -- -- --
2019-11-30 10:00:00 -- -- -- -- -- -- -- -- --
2019-11-30 09:00:00 -- -- -- -- -- -- -- -- --
2019-11-30 08:00:00 -- -- -- -- -- -- -- -- --
2019-11-30 07:00:00 -- -- -- -- -- -- -- -- --
2019-11-30 06:00:00 -- -- -- -- -- -- -- -- --
2019-11-30 05:00:00 -- -- -- -- -- -- -- -- --
2019-11-30 04:00:00 -- -- -- -- -- -- -- -- --
2019-11-30 03:00:00 -- -- -- -- -- -- -- -- --
2019-11-30 02:00:00 -- -- -- -- -- -- -- -- --
2019-11-30 01:00:00 -- -- -- -- -- -- -- -- --
2019-11-30 00:00:00 -- -- -- -- -- -- -- -- --
2019-11-29 23:00:00 -- -- -- -- -- -- -- -- --
2019-11-29 22:00:00 -- -- -- -- -- -- -- -- --
2019-11-29 21:00:00 -- -- -- -- -- -- -- -- --
2019-11-29 20:00:00 -- -- -- -- -- -- -- -- --
2019-11-29 19:00:00 -- -- -- -- -- -- -- -- --
2019-11-29 18:00:00 -- -- -- -- -- -- -- -- --
2019-11-29 17:00:00 7.4 15 Noroeste 29 Noroeste 0 850.5 0.1 81
2019-11-29 16:00:00 7.5 15 Noroeste 30 Noroeste 0.1 850 -0.7 81
2019-11-29 15:00:00 7.5 21 Noroeste 34 Noroeste 0 850.3 -0.7 81
2019-11-29 14:00:00 7.8 18 Oeste 39 Oeste 0.5 850.4 -0.3 81
2019-11-29 13:00:00 7.8 25 Noroeste 40 Noroeste 0.7 850.7 0.7 81
2019-11-29 12:00:00 7.5 22 Noroeste 38 Oeste 1.2 851 1.7 81
2019-11-29 11:00:00 7 31 Oeste 44 Oeste 3.3 850.7 1.9 81
2019-11-29 10:00:00 7.4 26 Noroeste 40 Noroeste 0.5 850 1.8 81
2019-11-29 09:00:00 7.2 20 Noroeste 37 Noroeste 0.3 849.3 1.5 81
2019-11-29 08:00:00 7 28 Noroeste 45 Noroeste 0 848.8 1.4 81
2019-11-29 07:00:00 7 32 Noroeste 60 Noroeste 0.1 848.2 1.1 81
2019-11-29 06:00:00 7 37 Noroeste 59 Oeste 0.1 847.8 0.9 81
2019-11-29 05:00:00 7 38 Noroeste 59 Noroeste 0 847.4 0.7 81
2019-11-29 04:00:00 6.9 35 Noroeste 53 Noroeste 0.1 847.1 0 81
2019-11-29 03:00:00 6.8 33 Noroeste 54 Noroeste 0 846.9 0.3 79
2019-11-29 02:00:00 7 32 Noroeste 51 Noroeste 0.4 846.7 -0.2 78
2019-11-29 01:00:00 6.6 22 Noroeste 46 Oeste 0 847.1 0.3 75
2019-11-29 00:00:00 7.7 31 Oeste 58 Noroeste 0 846.6 -0.4 63
2019-11-28 23:00:00 7.4 19 Noroeste 36 Noroeste 0 846.9 0.6 59
2019-11-28 22:00:00 6.7 14 Noroeste 23 Noroeste 0 846.8 0.4 60
2019-11-28 21:00:00 5.6 10 Noroeste 26 Oeste 0 847 0.9 67
2019-11-28 20:00:00 5.3 18 Noroeste 28 Noroeste 0 846.3 0.5 74
2019-11-28 19:00:00 4.3 9 Noroeste 15 Noroeste 0 846.4 0.5 81
2019-11-28 18:00:00 4.4 3 Este 12 Este 0 846.1 0.2 81
2019-11-28 17:00:00 5 8 Este 14 Este 0 845.8 -0.3 81
2019-11-28 16:00:00 5.3 9 Este 13 Este 0 845.9 -0.8 78
2019-11-28 15:00:00 5.4 5 Sudeste 13 Este 0 845.9 -1.4 77
2019-11-28 14:00:00 6 6 Sudeste 17 Oeste 0 846.1 -1 69
2019-11-28 13:00:00 6 10 Noroeste 16 Oeste 0 846.7 0.3 65
2019-11-28 12:00:00 5.2 10 Oeste 33 Noroeste 0 847.3 1.2 68
2019-11-28 11:00:00 5.6 16 Noroeste 32 Noroeste 0 847.1 1.5 68
2019-11-28 10:00:00 4.8 23 Noroeste 37 Noroeste 0 846.4 1.2 71
2019-11-28 09:00:00 4.4 20 Noroeste 38 Noroeste 0 846.1 1.7 74
2019-11-28 08:00:00 4.3 22 Noroeste 38 Noroeste 0 845.6 1.6 75
2019-11-28 07:00:00 3.7 23 Noroeste 45 Noroeste 0 845.2 1.2 78
2019-11-28 06:00:00 3.8 34 Noroeste 61 Oeste 0 844.4 0.6 76
2019-11-28 05:00:00 3.9 37 Noroeste 55 Noroeste 0 844 0.3 74
2019-11-28 04:00:00 3.8 35 Noroeste 56 Oeste 0 844 -0.2 72
2019-11-28 03:00:00 3.8 35 Noroeste 55 Noroeste 0 843.8 -0.5 71
2019-11-28 02:00:00 4.2 33 Noroeste 55 Noroeste 0 843.7 -0.1 68
2019-11-28 01:00:00 4 34 Noroeste 52 Noroeste 0 844.2 0.7 68
2019-11-28 00:00:00 3.7 31 Noroeste 55 Noroeste 0 844.3 0.6 68
2019-11-27 23:00:00 4 31 Noroeste 50 Oeste 0 843.8 0.3 67
2019-11-27 22:00:00 4 25 Noroeste 47 Oeste 0 843.5 0.3 66
2019-11-27 21:00:00 4.1 24 Noroeste 48 Noroeste 0 843.7 0.9 64
2019-11-27 20:00:00 4.2 26 Noroeste 45 Noroeste 0 843.5 0.9 60
2019-11-27 19:00:00 4.3 26 Noroeste 46 Oeste 0 843.2 1.1 57
2019-11-27 18:00:00 4.7 26 Noroeste 50 Noroeste 0 842.8 0.6 54
2019-11-27 17:00:00 4.9 28 Oeste 48 Noroeste 0 842.6 0.3 53
2019-11-27 16:00:00 5.7 29 Noroeste 48 Oeste 0 842.1 -0.4 50
2019-11-27 15:00:00 6.4 22 Noroeste 42 Oeste 0 842.2 -0.6 50
2019-11-27 14:00:00 6.4 27 Noroeste 48 Oeste 0 842.3 -0.8 48
2019-11-27 06:00:00 2.1 33 Noroeste 54 Noroeste 0 840.8 0.7 78
2019-11-27 05:00:00 2.8 27 Noroeste 48 Oeste 0 840.8 1.2 81
2019-11-27 04:00:00 4.4 29 Noroeste 54 Noroeste 0 840.7 0.4 78
2019-11-27 03:00:00 5.1 28 Noroeste 64 Oeste 0 840.1 -0.4 77
2019-11-27 02:00:00 5.5 41 Noroeste 80 Oeste 0 839.6 -0.8 71
2019-11-27 01:00:00 5.7 30 Noroeste 63 Oeste 0.4 840.3 -0.4 79
2019-11-27 00:00:00 4.9 16 Noroeste 44 Oeste 0.3 840.5 -0.7 75
2019-11-26 23:00:00 6.2 16 Oeste 33 Oeste 0 840.4 -0.5 64
2019-11-26 22:00:00 6.3 17 Oeste 41 Oeste 0.1 840.7 -0.2 81
2019-11-26 21:00:00 6.9 12 Sudoeste 33 Sudoeste 0.6 841.2 0.2 81
2019-11-26 20:00:00 6.9 7 Sur 31 Sur 0.4 840.9 -1 81
2019-11-26 19:00:00 6.6 7 Sur 38 Sudeste 0 840.9 -1.1 81
2019-11-26 18:00:00 6.5 10 Sur 46 Sudoeste 0 841 -1.1 81
2019-11-26 17:00:00 6.6 10 Este 30 Este 0 841.9 -1 81
2019-11-26 16:00:00 6.3 11 Este 28 Este 0 842 -2 81
2019-11-26 15:00:00 5.7 16 Sudeste 31 Este 0 842.1 -2.4 81
2019-11-26 14:00:00 5.5 17 Sudeste 30 Sudeste 0 842.9 -2.1 81
2019-11-26 13:00:00 5.8 16 Este 29 Este 0 844 -0.8 80
2019-11-26 12:00:00 6.4 16 Este 22 Este 0 844.5 -0.2 75
2019-11-26 11:00:00 6.4 9 Este 18 Nordeste 0 845 0.3 67
2019-11-26 10:00:00 5.7 12 Este 26 Este 0 844.8 0.1 72
2019-11-26 09:00:00 5.1 15 Sudeste 19 Sudeste 0 844.7 -0.1 71
2019-11-26 08:00:00 7.6 7 Sudeste 13 Noroeste 0 844.7 -0.4 64
2019-11-26 07:00:00 7.7 7 Noroeste 26 Oeste 0 844.7 -1.2 68
2019-11-26 06:00:00 6.1 9 Noroeste 19 Noroeste 0 844.8 -1.1 62
2019-11-26 05:00:00 6.1 13 Noroeste 19 Noroeste 0 845.1 -0.7 44
2019-11-26 04:00:00 5.6 5 Noroeste 10 Noroeste 0 845.9 -0.2 46
2019-11-26 03:00:00 4.5 0 Calma 21 Noroeste 0 845.9 -0.3 81
2019-11-26 02:00:00 4.7 18 Noroeste 39 Noroeste 0 845.8 -0.6 81
2019-11-26 01:00:00 5 27 Noroeste 42 Noroeste 0 846.1 0.2 81
2019-11-26 00:00:00 5 30 Noroeste 42 Noroeste 0 846.2 0.7 81
2019-11-25 23:00:00 5 32 Noroeste 54 Noroeste 0 846.4 0.5 81
2019-11-25 22:00:00 5.1 35 Noroeste 66 Noroeste 0 845.9 0.3 81
2019-11-25 21:00:00 5.4 41 Noroeste 59 Oeste 0 845.5 0.1 81
2019-11-25 20:00:00 5.6 40 Noroeste 56 Oeste 0 845.9 0.6 80
2019-11-25 19:00:00 5.8 29 Noroeste 45 Noroeste 0 845.6 0.7 76
2019-11-25 18:00:00 5.8 26 Noroeste 41 Noroeste 0 845.4 0.8 72
2019-11-25 17:00:00 6.3 28 Noroeste 49 Oeste 0 845.3 0.9 67
2019-11-25 16:00:00 6.6 33 Noroeste 54 Oeste 0 844.9 0.2 66
2019-11-25 15:00:00 7.1 32 Noroeste 57 Noroeste 0 844.6 -0.6 61
2019-11-25 14:00:00 7.2 36 Noroeste 57 Noroeste 0 844.4 -0.5 56
2019-11-25 13:00:00 7.7 35 Noroeste 61 Oeste 0 844.7 0.5 56
2019-11-25 12:00:00 7.5 33 Noroeste 56 Noroeste 0 845.2 1.8 58
2019-11-25 11:00:00 6.1 32 Noroeste 61 Oeste 0 844.9 1.6 71
2019-11-25 10:00:00 5 38 Noroeste 72 Oeste 0 844.2 1.8 77
2019-11-25 09:00:00 4.4 43 Noroeste 65 Noroeste 0 843.4 1.2 81
2019-11-25 08:00:00 4.7 41 Noroeste 66 Noroeste 0 843.3 0.2 81
2019-11-25 07:00:00 4.5 46 Noroeste 73 Noroeste 0 842.4 -0.7 81
2019-11-25 06:00:00 5.3 47 Noroeste 73 Noroeste 0.2 842.2 -1.1 81
2019-11-25 05:00:00 5.5 30 Noroeste 58 Noroeste 0.7 843.1 -0.5 81
2019-11-25 04:00:00 6.1 24 Noroeste 61 Noroeste 0.1 843.1 -0.6 79
2019-11-25 03:00:00 6.5 27 Noroeste 42 Noroeste 0.1 843.3 -0.7 79
2019-11-25 02:00:00 6.7 16 Noroeste 31 Oeste 0.5 843.6 -0.7 79
2019-11-25 01:00:00 6.5 17 Noroeste 30 Noroeste 0 843.7 -0.5 75
2019-11-25 00:00:00 5.6 11 Noroeste 21 Oeste 0 844 -0.1 79
2019-11-24 23:00:00 4.6 9 Noroeste 21 Noroeste 0 844.3 0.2 81
2019-11-24 22:00:00 3.8 12 Noroeste 30 Noroeste 0 844.2 0.4 81
2019-11-24 21:00:00 3 20 Noroeste 30 Noroeste 0.1 844.1 0.4 81
2019-11-24 20:00:00 2.2 21 Noroeste 32 Noroeste 0 844.1 0.3 81
2019-11-24 19:00:00 1.6 19 Noroeste 28 Noroeste 0.2 843.8 0.4 81
2019-11-24 18:00:00 1.8 19 Noroeste 31 Noroeste 0 843.7 0.4 74
2019-11-24 17:00:00 2.3 17 Noroeste 34 Noroeste 0 843.8 0.1 69
2019-11-24 16:00:00 2.6 22 Noroeste 42 Oeste 0 843.4 -0.7 65
2019-11-24 15:00:00 2.6 23 Noroeste 44 Noroeste 0 843.3 -1.3 61
2019-11-24 14:00:00 2 27 Noroeste 45 Noroeste 0 843.7 -0.7 64
2019-11-24 13:00:00 0.7 30 Noroeste 47 Oeste 0 844.1 0.4 81
2019-11-24 12:00:00 0 26 Noroeste 55 Noroeste 0 844.6 1.8 81
2019-11-24 11:00:00 -0.6 36 Noroeste 55 Oeste 0 844.4 2.5 81
2019-11-24 10:00:00 -1 31 Noroeste 56 Oeste 0 843.7 2.3 81
2019-11-24 09:00:00 -1.1 40 Noroeste 68 Noroeste 0 842.8 2 81
2019-11-24 08:00:00 -1 46 Noroeste 87 Noroeste 0 841.9 1.3 81
2019-11-24 07:00:00 -0.9 48 Noroeste 80 Noroeste 0 841.4 1 81
2019-11-24 06:00:00 -0.8 46 Noroeste 78 Noroeste 0 840.8 0.5 81
2019-11-24 05:00:00 -0.5 45 Noroeste 77 Noroeste 0 840.6 0.8 81
2019-11-24 04:00:00 -0.5 48 Noroeste 76 Noroeste 0 840.4 1.3 81
2019-11-24 03:00:00 -0.1 46 Noroeste 69 Noroeste 0 840.3 1.5 81
2019-11-24 02:00:00 -0.1 46 Noroeste 76 Noroeste 0 839.8 0.7 81
2019-11-24 01:00:00 0.1 53 Noroeste 81 Oeste 0 839.1 0.1 81
2019-11-24 00:00:00 0.3 56 Noroeste 85 Noroeste 0 838.8 -0.3 81
2019-11-23 23:00:00 0.2 56 Noroeste 83 Oeste 0 839.1 0.6 81
2019-11-23 22:00:00 0.5 55 Noroeste 78 Oeste 0 839 0.9 77
2019-11-23 21:00:00 0.6 48 Noroeste 72 Noroeste 0 839.1 1.5 71
2019-11-23 20:00:00 0.7 48 Noroeste 77 Noroeste 0 838.5 1.8 71
2019-11-23 19:00:00 0.7 42 Noroeste 66 Oeste 0 838.1 2 71
2019-11-23 18:00:00 1.1 36 Noroeste 67 Noroeste 0 837.6 2.8 69
2019-11-23 17:00:00 1.2 38 Noroeste 63 Noroeste 0 836.7 3.8 67
2019-11-23 16:00:00 1.4 40 Noroeste 72 Oeste 0 836.1 4 67
2019-11-23 15:00:00 1.4 48 Noroeste 89 Noroeste 0 834.8 3.7 81
2019-11-23 14:00:00 0.7 57 Noroeste 88 Oeste 0 832.9 3.2 81
2019-11-23 13:00:00 0 66 Noroeste 95 Noroeste 0 832.1 4.3 81
2019-11-23 12:00:00 -0.5 61 Noroeste 113 Noroeste 0 831.1 4.1 81
2019-11-23 11:00:00 -0.8 72 Noroeste 113 Oeste 0 829.7 4.7 81
2019-11-23 10:00:00 -1.4 74 Noroeste 111 Noroeste 0 827.8 4 81
2019-11-23 09:00:00 -1.6 76 Noroeste 117 Noroeste 0 827 3 81
2019-11-23 08:00:00 -1.6 87 Noroeste 123 Noroeste 0 825 1 81
2019-11-23 07:00:00 -1.4 82 Noroeste 119 Noroeste 0 823.8 1 81
2019-11-23 06:00:00 -0.9 77 Noroeste 112 Noroeste 0 824 1.6 81
2019-11-23 05:00:00 -0.8 67 Noroeste 112 Noroeste 0.1 824 0.3 81
2019-11-23 04:00:00 -0.7 77 Noroeste 116 Noroeste 0 822.8 -1.3 81
2019-11-23 03:00:00 -0.5 66 Noroeste 96 Noroeste 0 822.4 -2.5 80
2019-11-23 02:00:00 0.1 58 Noroeste 88 Noroeste 0 823.7 -1.6 81
2019-11-23 01:00:00 0.5 52 Noroeste 81 Noroeste 0.2 824.1 -1.5 81
2019-11-23 00:00:00 0.7 45 Noroeste 78 Noroeste 0.1 824.9 -0.7 79
2019-11-22 23:00:00 2.9 36 Oeste 68 Oeste 0 825.3 0.2 63
2019-11-22 22:00:00 3.1 32 Oeste 52 Oeste 0 825.6 0.4 65
2019-11-22 21:00:00 2.9 26 Noroeste 56 Oeste 0.1 825.6 0.7 73
2019-11-22 20:00:00 3.6 33 Noroeste 62 Oeste 0 825.1 0.2 68
2019-11-22 19:00:00 4.4 27 Oeste 49 Oeste 0.1 825.2 -0.3 59
2019-11-22 18:00:00 4.4 22 Oeste 39 Oeste 0 824.9 -1.4 81
2019-11-22 17:00:00 5 12 Sudoeste 28 Sudeste 0 824.9 -1.8 81
2019-11-22 16:00:00 4.8 11 Sudeste 29 Sudeste 0 825.5 -2.2 81
2019-11-22 15:00:00 4.4 8 Sudeste 26 Este 0.6 826.3 -2.5 81
2019-11-22 14:00:00 3.7 18 Sudeste 35 Este 0.9 826.7 -3.3 81
2019-11-22 13:00:00 3 21 Este 41 Este 2.6 827.7 -3 81
2019-11-22 12:00:00 2.7 23 Sudeste 43 Este 1.1 828.8 -2.8 81
2019-11-22 11:00:00 2.3 23 Sudeste 43 Este 0.6 830 -2.3 81
2019-11-22 10:00:00 2 26 Sudeste 45 Sudeste 0.4 830.7 -2 81
2019-11-22 09:00:00 1.8 19 Sudeste 37 Este 1.6 831.6 -1.9 81
2019-11-22 08:00:00 1.8 9 Sudeste 43 Este 0.9 832.3 -1.8 81
2019-11-22 07:00:00 1.3 13 Sudeste 33 Este 0.7 832.7 -2.3 81
2019-11-22 06:00:00 1.1 17 Sudeste 27 Este 0.5 833.5 -1.7 81
2019-11-22 05:00:00 0.8 14 Este 23 Sudeste 0.8 834.1 -1.7 81
2019-11-22 04:00:00 0.8 10 Sudeste 24 Este 0.2 835 -1.4 81
2019-11-22 03:00:00 0.5 17 Este 34 Sudeste 0.2 835.2 -1.7 81
2019-11-22 02:00:00 0.4 14 Sudeste 21 Sudeste 0.2 835.8 -1.6 81
2019-11-22 01:00:00 0.4 13 Este 23 Este 0 836.4 -1.6 81
2019-11-22 00:00:00 0.3 13 Sudeste 18 Este 0 836.9 -0.8 81
2019-11-21 23:00:00 0.3 10 Sudeste 17 Sudoeste 0 837.4 -0.2 81
2019-11-21 22:00:00 1.2 9 Sudoeste 14 Sur 0 838 0.4 81
2019-11-21 21:00:00 0.2 6 Sudeste 9 Este 0 837.7 0.2 81
2019-11-21 20:00:00 0.5 0 Calma 16 Noroeste 0 837.6 0.3 81
2019-11-21 19:00:00 0.4 9 Noroeste 12 Oeste 0 837.6 0.3 81
2019-11-21 18:00:00 1.8 5 Noroeste 12 Noroeste 0.1 837.5 0.4 81
2019-11-21 17:00:00 1.7 8 Noroeste 21 Noroeste 1 837.3 0 81
2019-11-21 16:00:00 2.2 5 Oeste 14 Oeste 0.1 837.3 -0.4 81
2019-11-21 15:00:00 1.8 9 Noroeste 18 Noroeste 0.4 837.1 -1.2 81
2019-11-21 14:00:00 1.5 11 Oeste 26 Noroeste 0.6 837.3 -0.8 81
2019-11-21 13:00:00 1 0 Calma 10 Noroeste 0 837.7 0 81
2019-11-21 12:00:00 1.1 10 Noroeste 23 Noroeste 0.8 838.3 0.7 81
2019-11-21 11:00:00 -0.1 2 Este 18 Sudoeste 0.6 838.1 0.9 81
2019-11-21 10:00:00 0.2 0 Calma 9 Sudoeste 0.2 837.7 0.9 81
2019-11-21 09:00:00 -0.5 6 Sudeste 10 Sudeste 0.2 837.6 0.7 81
2019-11-21 08:00:00 -0.1 0 Calma 22 Oeste 0 837.2 0.1 81
2019-11-21 07:00:00 0 8 Noroeste 20 Sudoeste 0.1 836.8 -0.7 81
2019-11-21 06:00:00 0.4 15 Sudoeste 32 Sudoeste 0 836.9 -0.6 80
2019-11-21 05:00:00 -1.5 0 Calma -- -- 0 837.1 -0.3 79
2019-11-21 04:00:00 -1.2 0 Calma -- -- 0 837.5 -0.3 81
2019-11-21 03:00:00 -1.1 0 Calma -- -- 0 837.5 -0.2 81
2019-11-21 02:00:00 -1.9 0 Calma -- -- 0 837.4 -0.4 81
2019-11-21 01:00:00 -2 0 Calma -- -- 0 837.8 0.1 81
2019-11-21 00:00:00 -1.2 0 Calma -- -- 0 837.7 0.1 81
2019-11-20 23:00:00 -1 0 Calma -- -- 0 837.8 0.1 81
2019-11-20 22:00:00 -1.1 0 Calma 16 Este 0 837.7 0.3 81
2019-11-20 21:00:00 -1.1 10 Sudeste 14 Sudeste 0 837.6 0.1 81
2019-11-20 20:00:00 -1 8 Este 13 Este 0 837.7 0.2 81
2019-11-20 19:00:00 -1.3 7 Este 13 Este 0 837.4 -0.3 81
2019-11-20 18:00:00 -1.3 8 Este 21 Este 0.6 837.5 -0.3 81
2019-11-20 17:00:00 -1.3 13 Sudeste 22 Este 0.8 837.5 -0.7 81
2019-11-20 16:00:00 -1 12 Este 50 Este 0.7 837.7 -1.1 81
2019-11-20 15:00:00 -0.7 15 Este 30 Este 0.7 837.8 -1.7 81
2019-11-20 14:00:00 -0.1 15 Este 32 Sudeste 0 838.2 -1.9 81
2019-11-20 13:00:00 -0.2 19 Este 31 Este 0 838.8 -1.1 81
2019-11-20 12:00:00 -0.6 16 Sudeste 27 Este 0 839.5 -0.3 81
2019-11-20 11:00:00 -0.9 10 Este 23 Este 0 840.1 0.3 81
2019-11-20 10:00:00 -1.1 15 Este 27 Este 0 839.9 -0.1 81
2019-11-20 09:00:00 -1.5 17 Este 28 Este 0 839.8 -0.3 81
2019-11-20 08:00:00 -1.5 13 Sudeste 24 Este 0 839.8 -0.8 80
2019-11-20 07:00:00 -1.6 15 Sudeste 23 Este 0 840 -1.1 80
2019-11-20 06:00:00 -1.2 15 Sudeste 21 Sudeste 0 840.1 -1.3 78
2019-11-20 05:00:00 -1.1 13 Sudeste 18 Este 0 840.6 -1.3 78
2019-11-20 04:00:00 -0.7 13 Sudeste 17 Sudeste 0 841.1 -1.3 75
2019-11-20 03:00:00 -0.3 12 Sudeste 16 Este 0 841.4 -1.5 68
2019-11-20 02:00:00 -0.3 11 Sudeste 15 Sudeste 0 841.9 -1.5 70
2019-11-20 01:00:00 0 10 Sudeste 13 Sudeste 0 842.4 -1.2 62
2019-11-20 00:00:00 0 9 Sudeste 12 Sudeste 0 842.9 -0.8 62
2019-11-19 23:00:00 0 9 Este 13 Sudeste 0 843.4 -0.4 64
2019-11-19 22:00:00 0.3 6 Sudeste 10 Sudeste 0 843.6 0 61
2019-11-19 21:00:00 0.3 6 Sudeste 10 Sudeste 0 843.7 0.2 68
2019-11-19 20:00:00 -0.2 6 Sudeste 9 Sudeste 0 843.8 0.2 80
2019-11-19 19:00:00 0 0 Calma 13 Noroeste 0 843.6 -0.3 75
2019-11-19 18:00:00 0 12 Noroeste 19 Noroeste 0 843.5 -0.6 77
2019-11-19 17:00:00 1.1 13 Noroeste 19 Noroeste 0 843.6 -0.9 81
2019-11-19 16:00:00 1.7 13 Noroeste 20 Noroeste 0 843.9 -0.9 81
2019-11-19 15:00:00 1.2 13 Noroeste 21 Noroeste 0 844.1 -1.7 81
2019-11-19 14:00:00 1.8 10 Noroeste 21 Noroeste 0 844.5 -1.4 81
2019-11-19 13:00:00 1.1 10 Oeste 16 Oeste 0 844.8 -1 81
2019-11-19 12:00:00 1 11 Oeste 18 Oeste 0 845.8 0.2 81
2019-11-19 11:00:00 -0.1 13 Oeste 23 Oeste 0 845.9 0.4 81
2019-11-19 10:00:00 -0.4 16 Noroeste 23 Noroeste 0 845.8 0.7 81
2019-11-19 09:00:00 -1 17 Noroeste 22 Noroeste 0 845.6 0.5 81
2019-11-19 08:00:00 -1.3 13 Oeste 21 Oeste 0 845.5 0.4 81
2019-11-19 07:00:00 -1.5 17 Noroeste 21 Noroeste 0 845.1 -0.2 81
2019-11-19 06:00:00 -1.6 16 Noroeste 21 Noroeste 0 845.1 -0.3 81
2019-11-19 05:00:00 -1.6 14 Noroeste 20 Noroeste 0 845.1 -0.4 81
2019-11-19 04:00:00 -1.3 17 Noroeste 26 Noroeste 0 845.3 -0.7 81
2019-11-19 03:00:00 -1.3 17 Noroeste 22 Noroeste 0 845.4 0 81
2019-11-19 02:00:00 -1.1 13 Oeste 18 Oeste 0 845.5 -0.5 81
2019-11-19 01:00:00 -1.2 10 Noroeste 32 Noroeste 0 846 0 81
2019-11-19 00:00:00 -1 27 Noroeste 36 Noroeste 0 845.4 0.4 81
2019-11-18 23:00:00 -0.8 24 Noroeste 34 Noroeste 0 846 0.8 81
2019-11-18 22:00:00 -0.8 17 Noroeste 30 Noroeste 0 846 0.7 81
2019-11-18 21:00:00 -0.8 28 Noroeste 36 Noroeste 0 845 0 81
2019-11-18 20:00:00 -0.9 27 Noroeste 35 Noroeste 0 845.2 0.7 81
2019-11-18 19:00:00 -0.9 18 Noroeste 28 Noroeste 0 845.3 1.5 81
2019-11-18 18:00:00 -1.1 23 Noroeste 36 Noroeste 0 845 1.5 81
2019-11-18 17:00:00 -1.1 22 Noroeste 37 Noroeste 0 844.5 0.6 81
2019-11-18 16:00:00 -0.7 24 Noroeste 43 Noroeste 0 843.8 0.6 81
2019-11-18 15:00:00 -0.5 31 Noroeste 44 Noroeste 0 843.5 0 81
2019-11-18 14:00:00 -0.9 18 Noroeste 40 Noroeste 0 843.9 0.3 81
2019-11-18 13:00:00 -1 25 Noroeste 47 Noroeste 0 843.2 0 81
2019-11-18 12:00:00 -1.3 32 Noroeste 45 Noroeste 0 843.5 1.4 81
2019-11-18 11:00:00 -1.5 28 Noroeste 40 Oeste 0 843.6 1.9 81
2019-11-18 10:00:00 -1.5 22 Noroeste 47 Noroeste 0 843.2 1.9 81
2019-11-18 09:00:00 -1.5 33 Noroeste 53 Oeste 0 842.1 0.9 81
2019-11-18 08:00:00 -1.9 23 Noroeste 37 Noroeste 0 841.7 1.1 81
2019-11-18 07:00:00 -1.7 23 Noroeste 37 Noroeste 0 841.3 1.3 81
2019-11-18 06:00:00 -1.6 17 Noroeste 32 Noroeste 0 841.2 1.5 81
2019-11-18 05:00:00 -1.8 22 Noroeste 42 Noroeste 0.1 840.6 1.8 81
2019-11-18 04:00:00 -1.5 29 Noroeste 56 Noroeste 0 840 2.2 81
2019-11-18 03:00:00 -1.2 32 Noroeste 64 Noroeste 0 839.7 1.3 81
2019-11-18 02:00:00 -1.1 38 Noroeste 77 Noroeste 0 838.8 0.3 81
2019-11-18 01:00:00 -0.8 58 Noroeste 93 Noroeste 0 837.8 -0.7 81
2019-11-18 00:00:00 -0.7 49 Noroeste 78 Noroeste 0 838.4 -0.3 81
2019-11-17 23:00:00 -0.2 47 Noroeste 67 Oeste 0 838.5 0.2 81
2019-11-17 22:00:00 0.4 41 Noroeste 74 Noroeste 0 838.5 -0.5 81
2019-11-17 21:00:00 0.9 44 Noroeste 74 Oeste 0 838.7 -0.7 81
2019-11-17 20:00:00 1.6 48 Noroeste 71 Noroeste 0 838.3 -1 81
2019-11-17 19:00:00 1.8 41 Noroeste 63 Oeste 1 839 -0.7 81
2019-11-17 18:00:00 2.5 37 Noroeste 60 Oeste 1 839.4 -0.4 81
2019-11-17 17:00:00 2.7 36 Noroeste 69 Noroeste 0.2 839.3 -1.4 81
2019-11-17 16:00:00 3.1 37 Noroeste 74 Oeste 0.1 839.7 -1.5 81
2019-11-17 15:00:00 3.4 45 Noroeste 77 Noroeste 0.9 839.8 -2.3 81
2019-11-17 14:00:00 3.6 33 Noroeste 54 Noroeste 1.9 840.7 -1.7 81
2019-11-17 13:00:00 2.9 26 Noroeste 42 Noroeste 0.4 841.2 -1.2 81
2019-11-17 12:00:00 1.8 24 Noroeste 43 Noroeste 0.9 842.1 -0.5 81
2019-11-17 11:00:00 -0.3 0 Calma 2 Noroeste 0.4 842.4 0 81
2019-11-17 10:00:00 -0.5 0 Calma -- -- 1 842.4 0.1 81
2019-11-17 09:00:00 -0.6 0 Calma -- -- 0.2 842.6 0.5 81
2019-11-17 08:00:00 -1.1 0 Calma -- -- 0 842.4 0 81
2019-11-17 07:00:00 -1.4 0 Calma -- -- 0 842.3 -0.3 80
2019-11-17 06:00:00 -1.7 0 Calma -- -- 0 842.1 -0.5 80
2019-11-17 05:00:00 -1.9 0 Calma -- -- 0 842.4 -0.8 80
2019-11-17 04:00:00 -2.4 0 Calma -- -- 0 842.6 -0.6 80
2019-11-17 03:00:00 -2.6 0 Calma -- -- 0 842.6 -0.4 80
2019-11-17 02:00:00 -2.6 0 Calma -- -- 0 843.2 -0.4 80
2019-11-17 01:00:00 -2.4 0 Calma -- -- 0 843.2 -0.3 80
2019-11-17 00:00:00 -2.2 0 Calma -- -- 0 843 -0.5 80
2019-11-16 23:00:00 -2.7 0 Calma -- -- 0 843.6 0.4 80
2019-11-16 22:00:00 -2.7 0 Calma -- -- 0 843.5 0.2 80
2019-11-16 21:00:00 -2.2 0 Calma -- -- 0 843.5 0.3 80
2019-11-16 20:00:00 -1.8 0 Calma -- -- 0 843.2 0.1 81
2019-11-16 19:00:00 -2.1 0 Calma -- -- 0 843.3 0.6 80
2019-11-16 18:00:00 -1.9 0 Calma -- -- 0 843.2 0.7 81
2019-11-16 17:00:00 -1.7 0 Calma -- -- 0 843.1 0.3 81
2019-11-16 16:00:00 -1.6 0 Calma -- -- 0 842.7 0 81
2019-11-16 15:00:00 -1.4 0 Calma -- -- 0 842.5 -0.3 81
2019-11-16 14:00:00 -1.2 0 Calma -- -- 0 842.8 0.3 81
2019-11-16 13:00:00 -1.9 0 Calma -- -- 0 842.7 0.8 80
2019-11-16 12:00:00 -2.6 0 Calma -- -- 0 842.8 1.4 80
2019-11-16 11:00:00 -3 0 Calma -- -- 0 842.5 2.4 79
2019-11-16 10:00:00 -3.6 0 Calma -- -- 0 841.9 2.8 79
2019-11-16 09:00:00 -3.9 0 Calma -- -- 0 841.4 2.8 79
2019-11-16 08:00:00 -4.1 0 Calma -- -- 0 840.1 1.6 79
2019-11-16 07:00:00 -3.9 0 Calma -- -- 0 839.1 1.2 79
2019-11-16 06:00:00 -3.8 0 Calma -- -- 0 838.6 1.2 80
2019-11-16 05:00:00 -3.6 0 Calma 12 Oeste 0 838.5 1.8 80
2019-11-16 04:00:00 -3.4 10 Noroeste 19 Noroeste 0 837.9 1.2 80
2019-11-16 03:00:00 -3.2 14 Noroeste 26 Noroeste 0 837.4 1.4 80
2019-11-16 02:00:00 -3.1 19 Noroeste 27 Noroeste 0 836.7 0.7 80
2019-11-16 01:00:00 -2.9 19 Noroeste 27 Noroeste 0 836.7 1.3 80
2019-11-16 00:00:00 -2.8 18 Noroeste 29 Noroeste 0 836 1.7 80
2019-11-15 23:00:00 -2.7 22 Noroeste 34 Noroeste 0 836 1.6 80
2019-11-15 22:00:00 -2.7 25 Noroeste 39 Oeste 0 835.4 1.1 80
2019-11-15 21:00:00 -2.3 31 Noroeste 41 Noroeste 0 834.3 0.2 80
2019-11-15 20:00:00 -2.2 27 Noroeste 35 Oeste 0 834.4 0.4 80
2019-11-15 19:00:00 -1.9 22 Noroeste 30 Oeste 0 834.3 0.8 80
2019-11-15 18:00:00 -2.2 19 Noroeste 29 Noroeste 0 834.1 1.6 80
2019-11-15 17:00:00 -2.1 21 Noroeste 29 Noroeste 0 834 0.8 80
2019-11-15 16:00:00 -1.8 19 Noroeste 31 Noroeste 0 833.5 -0.2 80
2019-11-15 15:00:00 -1.9 23 Noroeste 34 Noroeste 0 832.5 -1.4 80
2019-11-15 14:00:00 -2 18 Noroeste 28 Noroeste 0 833.2 -0.6 80
2019-11-15 13:00:00 -2.5 16 Noroeste 29 Noroeste 0 833.7 0.3 80
2019-11-15 12:00:00 -2.7 18 Noroeste 33 Noroeste 0 833.9 1.2 80
2019-11-15 11:00:00 -3.1 20 Noroeste 38 Oeste 0.1 833.8 1.7 80
2019-11-15 10:00:00 -3.4 22 Noroeste 40 Noroeste 0.1 833.4 1.6 80
2019-11-15 09:00:00 -3.4 27 Noroeste 47 Noroeste 0 832.7 1.5 80
2019-11-15 08:00:00 -3.3 31 Noroeste 54 Oeste 0 832.1 1.5 80
2019-11-15 07:00:00 -2.9 30 Noroeste 46 Noroeste 0 831.8 1.1 80
2019-11-15 06:00:00 -2.9 36 Noroeste 61 Noroeste 0 831.2 0.5 81
2019-11-15 05:00:00 -3 38 Noroeste 66 Noroeste 0 830.6 -0.5 81
2019-11-15 04:00:00 -2.9 45 Noroeste 74 Noroeste 0 830.7 -0.8 81
2019-11-15 03:00:00 -2.6 52 Noroeste 71 Noroeste 0 830.7 -1.2 81
2019-11-15 02:00:00 -2.5 50 Noroeste 74 Noroeste 0 831.1 -0.3 81
2019-11-15 01:00:00 -2.2 48 Noroeste 67 Oeste 0.2 831.5 0.8 81
2019-11-15 00:00:00 -2.1 35 Noroeste 58 Oeste 0 831.9 1.9 81
2019-11-14 23:00:00 -2 39 Noroeste 66 Noroeste 0 831.4 2.5 81
2019-11-14 22:00:00 -1.8 45 Noroeste 76 Oeste 0 830.7 2.3 81
2019-11-14 21:00:00 -1.8 53 Noroeste 105 Oeste 0 830 2.4 81
2019-11-14 20:00:00 -1.6 59 Noroeste 97 Oeste 0 828.9 0.2 81
2019-11-14 19:00:00 -1.3 60 Noroeste 91 Noroeste 0 828.4 -1.3 81
2019-11-14 18:00:00 -1.4 52 Noroeste 80 Oeste 0.1 827.6 -2.2 81
2019-11-14 17:00:00 -1.5 41 Noroeste 69 Oeste 0.1 828.7 -2.4 81
2019-11-14 16:00:00 -1.8 33 Oeste 57 Oeste 0 829.7 -2.1 81
2019-11-14 15:00:00 -1.5 35 Noroeste 73 Oeste 0 829.8 -2.7 81
2019-11-14 14:00:00 -1.4 37 Noroeste 60 Noroeste 0 831.1 -1.6 81
2019-11-14 13:00:00 -1.6 35 Noroeste 51 Noroeste 0 831.8 -0.6 81
2019-11-14 12:00:00 -2.2 33 Noroeste 57 Noroeste 0 832.5 -0.5 81
2019-11-14 11:00:00 -2.6 38 Noroeste 60 Oeste 0 832.7 -0.7 81
2019-11-14 10:00:00 -2.3 42 Noroeste 69 Oeste 0 832.4 -1.2 81
2019-11-14 09:00:00 -2.4 45 Noroeste 74 Noroeste 0.1 833 -0.1 81
2019-11-14 08:00:00 -2 46 Noroeste 69 Oeste 0.5 833.4 -0.5 81
2019-11-14 07:00:00 -1.9 39 Noroeste 87 Noroeste 1.1 833.6 -1.5 81
2019-11-14 06:00:00 1.1 41 Oeste 76 Oeste 0.3 833.1 -4 81
2019-11-14 05:00:00 2.5 46 Noroeste 80 Noroeste 0 833.9 -3.9 64
2019-11-14 04:00:00 1.8 46 Noroeste 75 Oeste 0 835.1 -3.6 66
2019-11-14 03:00:00 1.3 36 Noroeste 71 Noroeste 0 837.1 -2.4 71
2019-11-14 02:00:00 1.3 41 Noroeste 64 Oeste 0 837.8 -2.6 74
2019-11-14 01:00:00 2.2 40 Noroeste 73 Noroeste 0 838.7 -2.3 76
2019-11-14 00:00:00 3.5 41 Noroeste 63 Oeste 0 839.5 -2 78
2019-11-13 23:00:00 4.2 36 Noroeste 55 Noroeste 0 840.4 -1.7 75
2019-11-13 22:00:00 4.4 32 Noroeste 54 Noroeste 0 841 -1.8 74
2019-11-13 21:00:00 4 32 Noroeste 48 Noroeste 0 841.5 -1.2 75
2019-11-13 20:00:00 4.7 29 Noroeste 48 Oeste 0 842.1 -0.4 72
2019-11-13 19:00:00 4.7 26 Noroeste 46 Oeste 0 842.8 0.4 73
2019-11-13 18:00:00 4.8 31 Noroeste 46 Noroeste 0 842.7 0.5 70
2019-11-13 17:00:00 5 30 Noroeste 48 Noroeste 0 842.5 0.3 64
2019-11-13 16:00:00 5.2 30 Noroeste 49 Oeste 0 842.4 -0.2 64
2019-11-13 15:00:00 4.9 30 Noroeste 47 Noroeste 0 842.2 0.3 64
2019-11-13 14:00:00 5 30 Noroeste 48 Noroeste 0 842.2 1.1 66
2019-11-13 13:00:00 4.6 21 Oeste 42 Noroeste 0 842.6 1.7 81
2019-11-13 12:00:00 4.4 28 Noroeste 59 Noroeste 0 841.9 2.9 81
2019-11-13 11:00:00 3.5 37 Noroeste 60 Noroeste 0 841.1 4.2 81
2019-11-13 10:00:00 3.3 30 Noroeste 78 Noroeste 0.4 840.9 5.2 81
2019-11-13 09:00:00 5.7 49 Noroeste 85 Noroeste 0.8 839 3.1 81
2019-11-13 08:00:00 6.1 53 Noroeste 96 Noroeste 0 836.9 1.8 80
2019-11-13 07:00:00 6.2 57 Noroeste 94 Noroeste 2.4 835.7 0.5 81
2019-11-13 06:00:00 6.4 57 Noroeste 96 Oeste 2.8 835.9 -0.1 81
2019-11-13 05:00:00 6.3 63 Noroeste 98 Oeste 0.4 835.1 -1.8 81
2019-11-13 04:00:00 6.2 57 Noroeste 88 Noroeste 0.5 835.2 -2.5 81
2019-11-13 03:00:00 6 54 Noroeste 86 Oeste 1.9 836 -2.2 81
2019-11-13 02:00:00 5.7 48 Noroeste 80 Noroeste 2 836.9 -2.6 81
2019-11-13 01:00:00 5.3 42 Noroeste 77 Noroeste 0.7 837.7 -2.5 81
2019-11-13 00:00:00 5.3 44 Noroeste 77 Noroeste 2.2 838.2 -2.9 81
2019-11-12 23:00:00 4.8 42 Noroeste 72 Noroeste 3.1 839.5 -1.9 81
2019-11-12 22:00:00 4.1 38 Noroeste 62 Noroeste 1.9 840.2 -1.6 81
2019-11-12 21:00:00 3.4 34 Noroeste 55 Noroeste 1.6 841.1 -1 81
2019-11-12 20:00:00 2.4 31 Noroeste 48 Oeste 1 841.4 -1.4 81
2019-11-12 19:00:00 1.9 32 Noroeste 51 Noroeste 0.3 841.8 -0.7 81
2019-11-12 18:00:00 2.4 30 Noroeste 46 Noroeste 0 842.1 -1.2 62
2019-11-12 17:00:00 2.9 35 Noroeste 54 Oeste 0 842.8 -1.3 54
2019-11-12 16:00:00 3.5 36 Noroeste 54 Noroeste 0 842.5 -2.2 53
2019-11-12 15:00:00 2.5 36 Noroeste 51 Noroeste 0 843.3 -1.8 60
2019-11-12 14:00:00 1.4 29 Noroeste 48 Noroeste 0 844.1 -1.2 67
2019-11-12 13:00:00 0.6 26 Noroeste 46 Noroeste 0 844.7 -0.6 81
2019-11-12 12:00:00 0.2 28 Noroeste 43 Noroeste 0 845.1 0.2 81
2019-11-12 11:00:00 -0.5 26 Noroeste 45 Noroeste 0 845.3 0.8 81
2019-11-12 10:00:00 -0.7 28 Noroeste 47 Noroeste 0 845.3 0.9 81
2019-11-12 09:00:00 -1.1 33 Noroeste 61 Noroeste 0 844.9 0.5 81
2019-11-12 08:00:00 -0.9 38 Noroeste 54 Noroeste 0 844.5 -0.2 81
2019-11-12 07:00:00 -1 29 Noroeste 47 Noroeste 0 844.4 -0.2 81
2019-11-12 06:00:00 -1 30 Noroeste 48 Oeste 0 844.4 -0.8 81
2019-11-12 05:00:00 -0.9 32 Noroeste 48 Noroeste 0 844.7 -1.3 81
2019-11-12 04:00:00 -1 30 Noroeste 50 Noroeste 0 844.6 -1.8 81
2019-11-12 03:00:00 -0.6 29 Noroeste 44 Noroeste 0 845.2 -1.5 81
2019-11-12 02:00:00 -0.6 25 Noroeste 36 Oeste 0 846 -0.5 81
2019-11-12 01:00:00 -0.9 20 Noroeste 30 Noroeste 0 846.4 -0.3 81
2019-11-12 00:00:00 -0.6 18 Noroeste 27 Noroeste 0 846.7 0.2 81
2019-11-11 23:00:00 0 15 Noroeste 28 Noroeste 0 846.5 0 81
2019-11-11 22:00:00 0.8 17 Noroeste 30 Noroeste 0 846.7 0.2 81
2019-11-11 21:00:00 1.2 15 Noroeste 28 Norte 0 846.5 0.7 81
2019-11-11 20:00:00 2 16 Noroeste 34 Noroeste 0 846.5 1 81
2019-11-11 19:00:00 2.6 18 Noroeste 33 Noroeste 0 846.5 1.3 81
2019-11-11 18:00:00 3.3 17 Noroeste 36 Noroeste 0 845.8 1.3 81
2019-11-11 17:00:00 3.3 22 Noroeste 44 Noroeste 0 845.5 1.5 81
2019-11-11 16:00:00 3.6 26 Noroeste 51 Noroeste 0 845.2 1.2 81
2019-11-11 15:00:00 4.6 32 Noroeste 58 Noroeste 0.2 844.5 -0.3 81
2019-11-11 14:00:00 4.7 36 Noroeste 67 Noroeste 0.1 844 -1.2 81
2019-11-11 13:00:00 4 42 Noroeste 70 Oeste 0.2 844 -1.4 81
2019-11-11 12:00:00 3.2 33 Noroeste 48 Noroeste 0.1 844.8 -0.8 81
2019-11-11 11:00:00 2.4 32 Noroeste 49 Oeste 0.2 845.2 0 81
2019-11-11 10:00:00 1.1 27 Noroeste 39 Oeste 0.1 845.4 0.3 81
2019-11-11 09:00:00 0.5 23 Noroeste 33 Noroeste 0.1 845.6 0.4 81
2019-11-11 08:00:00 0.1 22 Noroeste 32 Noroeste 0.1 845.2 -0.3 81
2019-11-11 07:00:00 -0.3 21 Noroeste 28 Noroeste 0 845.1 -0.4 81
2019-11-11 06:00:00 -0.4 0 Calma -- -- 0 845.2 -0.7 81
2019-11-11 05:00:00 -0.5 0 Calma 27 Noroeste 0 845.5 -0.2 81
2019-11-11 04:00:00 -0.7 13 Noroeste 30 Noroeste 0 845.5 -1.1 81
2019-11-11 03:00:00 -0.6 17 Noroeste 32 Noroeste 0 845.9 -0.3 81
2019-11-11 02:00:00 -0.5 17 Noroeste 43 Noroeste 0 845.7 -0.2 81
2019-11-11 01:00:00 -0.4 26 Noroeste 46 Noroeste 0 846.6 1.2 81
2019-11-11 00:00:00 -0.4 25 Noroeste 52 Noroeste 0 846.2 1 81